Time;durP1;ratioP1;P1;durP2;ratioP2;P2;SDS_P1;SDS_P2;PMS_P1;PMS_P2;Temp;Humidity;BMP_temperature;BMP_pressure;BME280_temperature;BME280_humidity;BME280_pressure;Samples;Min_cycle;Max_cycle;Signal;HPM_P1;HPM_P2
2022/03/13 00:00:49;;;;;;;18.95;13.07;;;;;;;;;;5059721;28;20420;-59
2022/03/13 00:03:14;;;;;;;20.15;14.68;;;;;;;;;;5037361;28;21148;-59
2022/03/13 00:05:41;;;;;;;17.35;12.90;;;;;;;;;;5037939;28;20229;-59
2022/03/13 00:08:16;;;;;;;20.05;13.85;;;;;;;;;;5025497;28;20266;-60
2022/03/13 00:10:43;;;;;;;21.92;17.25;;;;;;;;;;5064407;28;20555;-59
2022/03/13 00:13:14;;;;;;;25.80;19.35;;;;;;;;;;5064559;28;20211;-60
2022/03/13 00:15:40;;;;;;;21.52;16.38;;;;;;;;;;5050333;28;20265;-59
2022/03/13 00:18:06;;;;;;;20.20;14.95;;;;;;;;;;5044219;28;20223;-59
2022/03/13 00:20:32;;;;;;;19.23;14.43;;;;;;;;;;5045798;28;20225;-59
2022/03/13 00:22:58;;;;;;;21.27;14.13;;;;;;;;;;5041758;28;20227;-59
2022/03/13 00:25:23;;;;;;;21.25;14.88;;;;;;;;;;5056349;28;20229;-59
2022/03/13 00:27:49;;;;;;;19.77;15.15;;;;;;;;;;5057441;28;20218;-59
2022/03/13 00:30:14;;;;;;;20.75;15.82;;;;;;;;;;5060443;28;20213;-59
2022/03/13 00:32:39;;;;;;;18.58;14.27;;;;;;;;;;5063794;28;20729;-59
2022/03/13 00:35:05;;;;;;;21.63;14.70;;;;;;;;;;5064210;28;20552;-60
2022/03/13 00:37:30;;;;;;;19.67;14.63;;;;;;;;;;5054237;28;20250;-59
2022/03/13 00:39:56;;;;;;;21.60;14.57;;;;;;;;;;5044760;28;20238;-59
2022/03/13 00:42:22;;;;;;;18.50;14.85;;;;;;;;;;5063552;28;20210;-59
2022/03/13 00:44:49;;;;;;;18.35;14.68;;;;;;;;;;5055312;28;20384;-60
2022/03/13 00:47:14;;;;;;;19.92;15.20;;;;;;;;;;5020252;28;20546;-60
2022/03/13 00:49:39;;;;;;;20.30;14.90;;;;;;;;;;5038203;28;20211;-60
2022/03/13 00:52:05;;;;;;;21.85;15.50;;;;;;;;;;5038136;28;20231;-59
2022/03/13 00:54:30;;;;;;;21.48;14.70;;;;;;;;;;5064201;28;20217;-60
2022/03/13 00:56:55;;;;;;;19.90;15.05;;;;;;;;;;5064286;28;20230;-59
2022/03/13 00:59:21;;;;;;;18.58;14.40;;;;;;;;;;5063126;28;20210;-59
2022/03/13 01:01:47;;;;;;;19.65;14.55;;;;;;;;;;5064217;28;20271;-60
2022/03/13 01:04:12;;;;;;;20.00;13.95;;;;;;;;;;5059362;28;20211;-60
2022/03/13 01:06:37;;;;;;;20.48;15.30;;;;;;;;;;5044228;28;20211;-59
2022/03/13 01:09:03;;;;;;;21.05;15.23;;;;;;;;;;5038026;28;20269;-60
2022/03/13 01:11:28;;;;;;;22.30;15.15;;;;;;;;;;5037688;28;20207;-59
2022/03/13 01:13:53;;;;;;;20.85;15.15;;;;;;;;;;5036765;28;20222;-59
2022/03/13 01:16:20;;;;;;;23.40;15.05;;;;;;;;;;5047754;28;20217;-59
2022/03/13 01:18:46;;;;;;;20.15;14.70;;;;;;;;;;5044133;28;20253;-59
2022/03/13 01:21:11;;;;;;;21.20;15.00;;;;;;;;;;5043792;28;20351;-59
2022/03/13 01:23:38;;;;;;;21.52;14.10;;;;;;;;;;5044358;28;20679;-59
2022/03/13 01:26:21;;;;;;;21.45;15.68;;;;;;;;;;5044467;28;20306;-60
2022/03/13 01:28:46;;;;;;;19.25;14.77;;;;;;;;;;5062706;28;20222;-59
2022/03/13 01:31:11;;;;;;;22.80;15.00;;;;;;;;;;5059218;28;20223;-59
2022/03/13 01:33:37;;;;;;;21.77;14.75;;;;;;;;;;5056624;28;20282;-59
2022/03/13 01:36:03;;;;;;;20.73;14.10;;;;;;;;;;5055785;28;20214;-59
2022/03/13 01:38:28;;;;;;;21.88;14.63;;;;;;;;;;5042024;28;20231;-60
2022/03/13 01:40:54;;;;;;;19.50;14.40;;;;;;;;;;5044876;28;20210;-59
2022/03/13 01:43:19;;;;;;;20.65;15.73;;;;;;;;;;5043224;28;20219;-60
2022/03/13 01:45:44;;;;;;;19.08;14.15;;;;;;;;;;5059511;28;20214;-59
2022/03/13 01:48:10;;;;;;;21.30;14.48;;;;;;;;;;5062429;28;20259;-60
2022/03/13 01:50:36;;;;;;;21.33;15.07;;;;;;;;;;5063874;28;20218;-60
2022/03/13 01:53:01;;;;;;;23.17;16.63;;;;;;;;;;5061039;28;20667;-60
2022/03/13 01:55:26;;;;;;;21.83;15.48;;;;;;;;;;5036842;28;20230;-59
2022/03/13 01:57:51;;;;;;;19.48;15.02;;;;;;;;;;5036820;28;20694;-59
2022/03/13 02:00:19;;;;;;;19.17;14.13;;;;;;;;;;5037905;28;20310;-59
2022/03/13 02:02:45;;;;;;;21.02;15.93;;;;;;;;;;5043770;28;20215;-59
2022/03/13 02:05:16;;;;;;;20.48;14.45;;;;;;;;;;5044087;28;20219;-60
2022/03/13 02:07:45;;;;;;;22.00;15.68;;;;;;;;;;5045597;28;20263;-59
2022/03/13 02:10:10;;;;;;;21.48;14.20;;;;;;;;;;5062480;28;20214;-59
2022/03/13 02:12:35;;;;;;;19.08;14.40;;;;;;;;;;5063719;28;20279;-59
2022/03/13 02:15:01;;;;;;;22.55;14.77;;;;;;;;;;5059378;28;20747;-60
2022/03/13 02:17:27;;;;;;;20.80;15.00;;;;;;;;;;5035916;28;20231;-59
2022/03/13 02:19:52;;;;;;;20.38;15.23;;;;;;;;;;5018497;28;20276;-59
2022/03/13 02:22:18;;;;;;;23.13;14.85;;;;;;;;;;5036846;28;20902;-59
2022/03/13 02:24:43;;;;;;;22.20;16.27;;;;;;;;;;5042587;28;20575;-59
2022/03/13 02:27:08;;;;;;;22.60;16.30;;;;;;;;;;5043914;28;20608;-59
2022/03/13 02:29:34;;;;;;;19.75;14.85;;;;;;;;;;5046376;28;20758;-59
2022/03/13 02:31:59;;;;;;;19.35;15.30;;;;;;;;;;5046713;28;20241;-59
2022/03/13 02:34:24;;;;;;;26.30;16.77;;;;;;;;;;5047151;28;20280;-59
2022/03/13 02:36:50;;;;;;;20.52;15.20;;;;;;;;;;5047755;28;20231;-59
2022/03/13 02:39:15;;;;;;;21.00;15.05;;;;;;;;;;5042034;28;20953;-59
2022/03/13 02:41:41;;;;;;;22.17;15.35;;;;;;;;;;5040504;28;20616;-59
2022/03/13 02:44:06;;;;;;;23.00;16.20;;;;;;;;;;5040213;28;20230;-59
2022/03/13 02:46:48;;;;;;;25.23;17.63;;;;;;;;;;5043788;28;20686;-59
2022/03/13 02:49:14;;;;;;;22.75;17.17;;;;;;;;;;5065488;28;20711;-59
2022/03/13 02:51:41;;;;;;;23.35;17.10;;;;;;;;;;5048049;28;20571;-59
2022/03/13 02:54:06;;;;;;;20.63;15.55;;;;;;;;;;5066064;28;20215;-59
2022/03/13 02:56:32;;;;;;;22.35;16.02;;;;;;;;;;5066884;28;20267;-59
2022/03/13 02:58:57;;;;;;;21.67;16.10;;;;;;;;;;5065822;28;20309;-59
2022/03/13 03:01:22;;;;;;;21.50;15.30;;;;;;;;;;5062946;28;20218;-59
2022/03/13 03:03:48;;;;;;;17.88;13.60;;;;;;;;;;5058284;28;20222;-59
2022/03/13 03:06:13;;;;;;;21.52;15.27;;;;;;;;;;5038563;28;20239;-59
2022/03/13 03:08:38;;;;;;;21.20;15.35;;;;;;;;;;5042721;28;20227;-59
2022/03/13 03:11:04;;;;;;;21.45;15.63;;;;;;;;;;5046713;28;20237;-60
2022/03/13 03:13:29;;;;;;;20.80;15.23;;;;;;;;;;5065499;28;20684;-59
2022/03/13 03:15:54;;;;;;;21.40;15.20;;;;;;;;;;5049626;28;20290;-59
2022/03/13 03:18:20;;;;;;;21.63;15.63;;;;;;;;;;5046422;28;21165;-59
2022/03/13 03:20:45;;;;;;;21.33;15.20;;;;;;;;;;5046012;28;20226;-59
2022/03/13 03:23:10;;;;;;;20.05;15.20;;;;;;;;;;5045970;28;20504;-59
2022/03/13 03:25:35;;;;;;;21.45;15.50;;;;;;;;;;5058235;28;20455;-59
2022/03/13 03:28:01;;;;;;;21.20;15.43;;;;;;;;;;5057270;28;20211;-60
2022/03/13 03:30:28;;;;;;;21.38;14.93;;;;;;;;;;5059388;28;20214;-59
2022/03/13 03:32:54;;;;;;;19.05;14.05;;;;;;;;;;5065760;28;20217;-59
2022/03/13 03:35:19;;;;;;;20.23;14.73;;;;;;;;;;5064713;28;20218;-59
2022/03/13 03:37:45;;;;;;;21.38;15.07;;;;;;;;;;5053246;28;20223;-59
2022/03/13 03:40:11;;;;;;;22.55;14.98;;;;;;;;;;5045101;28;20657;-59
2022/03/13 03:42:36;;;;;;;19.45;14.48;;;;;;;;;;5064880;28;20218;-59
2022/03/13 03:45:02;;;;;;;20.30;15.20;;;;;;;;;;5056686;28;20218;-59
2022/03/13 03:47:27;;;;;;;20.30;15.02;;;;;;;;;;5040809;28;20214;-59
2022/03/13 03:49:52;;;;;;;21.38;15.32;;;;;;;;;;5037926;28;20242;-59
2022/03/13 03:52:18;;;;;;;21.23;14.90;;;;;;;;;;5038091;28;20774;-59
2022/03/13 03:54:43;;;;;;;22.33;14.85;;;;;;;;;;5043220;28;20219;-59
2022/03/13 03:57:08;;;;;;;21.88;15.23;;;;;;;;;;5045758;28;20581;-59
2022/03/13 03:59:33;;;;;;;22.63;15.48;;;;;;;;;;5046182;28;20261;-59
2022/03/13 04:01:59;;;;;;;20.90;14.73;;;;;;;;;;5045845;28;20246;-59
2022/03/13 04:04:24;;;;;;;20.40;15.65;;;;;;;;;;5045287;28;20218;-59
2022/03/13 04:06:49;;;;;;;21.00;14.55;;;;;;;;;;5045989;28;20211;-59
2022/03/13 04:09:14;;;;;;;22.50;16.40;;;;;;;;;;5041950;28;20223;-59
2022/03/13 04:11:40;;;;;;;21.50;15.75;;;;;;;;;;5038220;28;20658;-59
2022/03/13 04:14:06;;;;;;;21.02;15.27;;;;;;;;;;5019725;28;20692;-59
2022/03/13 04:16:31;;;;;;;20.25;15.70;;;;;;;;;;5040160;28;20219;-59
2022/03/13 04:18:56;;;;;;;20.25;14.80;;;;;;;;;;5045299;28;20585;-59
2022/03/13 04:21:23;;;;;;;20.73;14.60;;;;;;;;;;5045251;28;20617;-59
2022/03/13 04:23:48;;;;;;;21.75;16.05;;;;;;;;;;5044926;28;20215;-59
2022/03/13 04:26:14;;;;;;;21.33;15.63;;;;;;;;;;5064035;28;20210;-59
2022/03/13 04:28:40;;;;;;;23.45;15.27;;;;;;;;;;5064518;28;20218;-59
2022/03/13 04:31:08;;;;;;;21.00;15.50;;;;;;;;;;5063409;28;20268;-59
2022/03/13 04:33:34;;;;;;;18.35;13.65;;;;;;;;;;5057347;28;20749;-59
2022/03/13 04:36:00;;;;;;;22.65;15.10;;;;;;;;;;5056767;28;20693;-59
2022/03/13 04:38:26;;;;;;;21.55;14.85;;;;;;;;;;5038922;28;20235;-59
2022/03/13 04:40:52;;;;;;;20.35;14.15;;;;;;;;;;5045330;28;20219;-59
2022/03/13 04:43:18;;;;;;;21.00;14.13;;;;;;;;;;5064051;28;20225;-59
2022/03/13 04:45:43;;;;;;;20.17;15.10;;;;;;;;;;5049746;28;20469;-59
2022/03/13 04:48:08;;;;;;;20.02;14.38;;;;;;;;;;5063394;28;21075;-59
2022/03/13 04:50:34;;;;;;;19.58;12.93;;;;;;;;;;5064458;28;20681;-59
2022/03/13 04:52:59;;;;;;;19.75;12.88;;;;;;;;;;5063256;28;20242;-59
2022/03/13 04:55:24;;;;;;;18.88;12.88;;;;;;;;;;5058105;28;20801;-59
2022/03/13 04:57:50;;;;;;;17.45;12.52;;;;;;;;;;5056644;28;20241;-59
2022/03/13 05:00:15;;;;;;;19.30;12.60;;;;;;;;;;5056168;28;20272;-59
2022/03/13 05:02:41;;;;;;;18.88;13.10;;;;;;;;;;5061903;28;20210;-60
2022/03/13 05:05:06;;;;;;;21.92;13.57;;;;;;;;;;5044263;28;20226;-59
2022/03/13 05:07:32;;;;;;;18.67;13.18;;;;;;;;;;5044696;28;20215;-59
2022/03/13 05:09:58;;;;;;;19.65;12.20;;;;;;;;;;5064195;28;20217;-59
2022/03/13 05:12:27;;;;;;;19.10;13.18;;;;;;;;;;5063126;28;20214;-59
2022/03/13 05:14:52;;;;;;;15.13;11.25;;;;;;;;;;5045225;28;20703;-59
2022/03/13 05:17:18;;;;;;;19.95;11.73;;;;;;;;;;5041389;28;20753;-59
2022/03/13 05:19:44;;;;;;;19.48;11.45;;;;;;;;;;5036420;28;20219;-59
2022/03/13 05:22:10;;;;;;;17.20;11.00;;;;;;;;;;5055815;28;20211;-59
2022/03/13 05:24:35;;;;;;;16.13;10.95;;;;;;;;;;5060356;28;20241;-59
2022/03/13 05:27:00;;;;;;;16.35;10.80;;;;;;;;;;5062826;28;20211;-60
2022/03/13 05:29:26;;;;;;;16.33;11.05;;;;;;;;;;5063854;28;20793;-59
2022/03/13 05:31:51;;;;;;;17.75;11.18;;;;;;;;;;5063814;28;20503;-59
2022/03/13 05:34:16;;;;;;;19.23;11.52;;;;;;;;;;5043280;28;20216;-59
2022/03/13 05:36:41;;;;;;;16.83;10.80;;;;;;;;;;5044366;28;20215;-59
2022/03/13 05:39:07;;;;;;;14.98;10.27;;;;;;;;;;5043935;28;20263;-60
2022/03/13 05:41:33;;;;;;;16.42;10.82;;;;;;;;;;5036389;28;20222;-59
2022/03/13 05:43:58;;;;;;;16.52;10.60;;;;;;;;;;5037214;28;20211;-59
2022/03/13 05:46:23;;;;;;;13.35;10.02;;;;;;;;;;5037542;28;20264;-59
2022/03/13 05:48:48;;;;;;;15.30;10.55;;;;;;;;;;5043983;28;20243;-59
2022/03/13 05:51:14;;;;;;;15.18;10.73;;;;;;;;;;5043725;28;20853;-59
2022/03/13 05:53:39;;;;;;;15.70;10.70;;;;;;;;;;5045251;28;20268;-59
2022/03/13 05:56:04;;;;;;;17.35;10.80;;;;;;;;;;5056336;28;20676;-60
2022/03/13 05:58:30;;;;;;;20.60;11.35;;;;;;;;;;5069856;28;20223;-59
2022/03/13 06:01:04;;;;;;;16.43;10.80;;;;;;;;;;5069217;28;20427;-59
2022/03/13 06:03:29;;;;;;;17.00;10.95;;;;;;;;;;5069479;28;20220;-59
2022/03/13 06:05:55;;;;;;;15.75;10.93;;;;;;;;;;5054664;28;20210;-64
2022/03/13 06:08:21;;;;;;;15.13;10.35;;;;;;;;;;5052062;28;20215;-64
2022/03/13 06:10:46;;;;;;;15.80;10.45;;;;;;;;;;5053521;28;20709;-63
2022/03/13 06:13:12;;;;;;;18.63;10.32;;;;;;;;;;5053096;28;20219;-63
2022/03/13 06:15:37;;;;;;;16.48;10.55;;;;;;;;;;5064679;28;20693;-63
2022/03/13 06:18:03;;;;;;;16.38;11.07;;;;;;;;;;5072831;28;20237;-63
2022/03/13 06:20:28;;;;;;;18.27;11.25;;;;;;;;;;5073078;28;20218;-63
2022/03/13 06:22:54;;;;;;;13.82;9.95;;;;;;;;;;5071932;28;20328;-64
2022/03/13 06:25:19;;;;;;;15.38;10.70;;;;;;;;;;5072639;28;20221;-65
2022/03/13 06:27:45;;;;;;;15.85;10.45;;;;;;;;;;5073275;28;20206;-63
2022/03/13 06:30:13;;;;;;;13.48;10.10;;;;;;;;;;5071670;28;20297;-62
2022/03/13 06:32:45;;;;;;;15.20;10.40;;;;;;;;;;5072991;28;20604;-63
2022/03/13 06:35:10;;;;;;;16.83;10.95;;;;;;;;;;5054723;28;20221;-61
2022/03/13 06:37:36;;;;;;;16.63;10.82;;;;;;;;;;5072020;28;20222;-63
2022/03/13 06:40:02;;;;;;;14.93;9.98;;;;;;;;;;5072349;28;20198;-62
2022/03/13 06:42:27;;;;;;;15.88;10.00;;;;;;;;;;5072761;28;20226;-62
2022/03/13 06:44:53;;;;;;;17.45;10.85;;;;;;;;;;5063946;28;20207;-63
2022/03/13 06:47:18;;;;;;;15.25;9.85;;;;;;;;;;5052449;28;20207;-67
2022/03/13 06:49:43;;;;;;;14.68;10.20;;;;;;;;;;5052454;28;20207;-63
2022/03/13 06:52:08;;;;;;;17.00;10.10;;;;;;;;;;5051121;28;20698;-62
2022/03/13 06:54:34;;;;;;;15.15;9.88;;;;;;;;;;5057290;28;20215;-62
2022/03/13 06:56:59;;;;;;;18.15;10.07;;;;;;;;;;5066990;28;20238;-63
2022/03/13 06:59:24;;;;;;;14.25;10.00;;;;;;;;;;5063243;28;20241;-62
2022/03/13 07:01:50;;;;;;;14.23;10.25;;;;;;;;;;5069429;28;20211;-63
2022/03/13 07:04:15;;;;;;;14.65;9.52;;;;;;;;;;5059304;28;20209;-62
2022/03/13 07:06:40;;;;;;;13.82;10.50;;;;;;;;;;5061629;28;20628;-62
2022/03/13 07:09:06;;;;;;;13.63;9.75;;;;;;;;;;5071620;28;20214;-61
2022/03/13 07:11:34;;;;;;;14.60;10.00;;;;;;;;;;5071936;28;20214;-62
2022/03/13 07:14:02;;;;;;;17.25;10.55;;;;;;;;;;5072098;28;20230;-62
2022/03/13 07:16:27;;;;;;;15.93;10.25;;;;;;;;;;5070621;28;20225;-62
2022/03/13 07:18:52;;;;;;;17.90;10.68;;;;;;;;;;5071366;28;20552;-62
2022/03/13 07:21:17;;;;;;;15.23;9.98;;;;;;;;;;5071754;28;20546;-61
2022/03/13 07:23:43;;;;;;;17.42;10.93;;;;;;;;;;5071799;28;20207;-64
2022/03/13 07:26:08;;;;;;;15.05;10.15;;;;;;;;;;5071062;28;20222;-61
2022/03/13 07:28:33;;;;;;;14.25;9.98;;;;;;;;;;5071701;28;20294;-62
2022/03/13 07:30:58;;;;;;;13.43;9.60;;;;;;;;;;5071831;28;20349;-62
2022/03/13 07:33:24;;;;;;;14.75;9.27;;;;;;;;;;5070711;28;20213;-61
2022/03/13 07:35:49;;;;;;;15.52;9.88;;;;;;;;;;5071433;28;20295;-61
2022/03/13 07:38:14;;;;;;;14.77;10.27;;;;;;;;;;5070700;28;20226;-63
2022/03/13 07:40:41;;;;;;;14.68;9.70;;;;;;;;;;5071046;28;20224;-61
2022/03/13 07:43:06;;;;;;;15.30;10.10;;;;;;;;;;5071096;28;20210;-61
2022/03/13 07:45:32;;;;;;;12.10;8.25;;;;;;;;;;5058449;28;20222;-61
2022/03/13 07:47:59;;;;;;;14.40;9.57;;;;;;;;;;5050792;28;20648;-62
2022/03/13 07:50:25;;;;;;;15.18;9.90;;;;;;;;;;5050840;28;20666;-62
2022/03/13 07:52:50;;;;;;;15.10;9.30;;;;;;;;;;5051327;28;20242;-63
2022/03/13 07:55:16;;;;;;;14.15;9.52;;;;;;;;;;5050299;28;20218;-63
2022/03/13 07:57:41;;;;;;;14.60;9.07;;;;;;;;;;5051355;28;20308;-60
2022/03/13 08:00:07;;;;;;;14.85;8.63;;;;;;;;;;5050843;28;20211;-63
2022/03/13 08:02:32;;;;;;;13.63;9.32;;;;;;;;;;5053014;28;20671;-67
2022/03/13 08:04:57;;;;;;;14.27;10.20;;;;;;;;;;5060592;28;20218;-64
2022/03/13 08:07:23;;;;;;;13.95;9.55;;;;;;;;;;5050465;28;20206;-64
2022/03/13 08:09:48;;;;;;;13.30;9.48;;;;;;;;;;5049901;28;20709;-64
2022/03/13 08:12:13;;;;;;;17.42;10.45;;;;;;;;;;5050869;28;20718;-64
2022/03/13 08:14:38;;;;;;;15.63;10.52;;;;;;;;;;5051118;28;20630;-64
2022/03/13 08:17:04;;;;;;;13.93;9.88;;;;;;;;;;5050019;28;20219;-64
2022/03/13 08:19:29;;;;;;;17.98;10.15;;;;;;;;;;5050819;28;20219;-64
2022/03/13 08:21:55;;;;;;;13.63;9.70;;;;;;;;;;5050314;28;20259;-64
2022/03/13 08:24:20;;;;;;;16.38;10.15;;;;;;;;;;5050234;28;20207;-64
2022/03/13 08:26:46;;;;;;;16.55;9.90;;;;;;;;;;5050369;28;20263;-64
2022/03/13 08:29:11;;;;;;;17.20;9.80;;;;;;;;;;5049374;28;20657;-64
2022/03/13 08:31:36;;;;;;;15.93;10.65;;;;;;;;;;5050586;28;20218;-64
2022/03/13 08:34:07;;;;;;;15.27;10.00;;;;;;;;;;5050437;28;20238;-64
2022/03/13 08:36:33;;;;;;;14.50;10.05;;;;;;;;;;5049821;28;20288;-64
2022/03/13 08:38:59;;;;;;;15.60;10.60;;;;;;;;;;5050471;28;20231;-64
2022/03/13 08:41:24;;;;;;;16.88;10.45;;;;;;;;;;5050188;28;20302;-64
2022/03/13 08:43:49;;;;;;;17.92;10.52;;;;;;;;;;5050078;28;20268;-64
2022/03/13 08:46:15;;;;;;;16.10;10.35;;;;;;;;;;5069160;28;20700;-64
2022/03/13 08:48:40;;;;;;;14.65;9.73;;;;;;;;;;5070367;28;20237;-64
2022/03/13 08:51:05;;;;;;;15.52;10.07;;;;;;;;;;5069037;28;20226;-63
2022/03/13 08:53:31;;;;;;;16.75;10.20;;;;;;;;;;5070414;28;20213;-64
2022/03/13 08:55:56;;;;;;;16.17;10.50;;;;;;;;;;5052549;28;20242;-64
2022/03/13 08:58:21;;;;;;;14.80;9.57;;;;;;;;;;5069252;28;20301;-64
2022/03/13 09:00:51;;;;;;;17.70;10.82;;;;;;;;;;5070443;28;20210;-64
2022/03/13 09:03:16;;;;;;;14.77;10.25;;;;;;;;;;5069912;28;20225;-64
2022/03/13 09:05:41;;;;;;;16.50;10.80;;;;;;;;;;5052685;28;20215;-64
2022/03/13 09:08:07;;;;;;;17.48;10.65;;;;;;;;;;5067474;28;20222;-64
2022/03/13 09:10:32;;;;;;;14.82;10.30;;;;;;;;;;5070234;28;20210;-64
2022/03/13 09:12:58;;;;;;;16.23;10.63;;;;;;;;;;5069517;28;20692;-64
2022/03/13 09:15:23;;;;;;;17.20;10.65;;;;;;;;;;5069500;28;20931;-64
2022/03/13 09:17:53;;;;;;;16.27;10.20;;;;;;;;;;5070024;28;20673;-64
2022/03/13 09:20:18;;;;;;;15.38;10.32;;;;;;;;;;5068482;28;20214;-64
2022/03/13 09:22:44;;;;;;;16.40;11.07;;;;;;;;;;5069786;28;20476;-64
2022/03/13 09:25:09;;;;;;;17.05;11.27;;;;;;;;;;5068350;28;20264;-64
2022/03/13 09:27:34;;;;;;;15.27;10.45;;;;;;;;;;5069531;28;20221;-64
2022/03/13 09:30:00;;;;;;;17.23;10.48;;;;;;;;;;5069823;28;20206;-64
2022/03/13 09:32:25;;;;;;;19.27;11.20;;;;;;;;;;5068575;28;20244;-64
2022/03/13 09:34:51;;;;;;;17.30;11.27;;;;;;;;;;5069943;28;20584;-64
2022/03/13 09:37:16;;;;;;;15.57;10.13;;;;;;;;;;5069149;28;20222;-63
2022/03/13 09:39:42;;;;;;;16.45;11.25;;;;;;;;;;5071961;28;20252;-64
2022/03/13 09:42:07;;;;;;;19.85;11.70;;;;;;;;;;5073491;28;20685;-64
2022/03/13 09:44:32;;;;;;;17.20;11.60;;;;;;;;;;5068387;28;20230;-64
2022/03/13 09:46:58;;;;;;;15.93;11.45;;;;;;;;;;5052874;28;20214;-64
2022/03/13 09:49:24;;;;;;;21.38;11.68;;;;;;;;;;5053542;28;20247;-64
2022/03/13 09:51:50;;;;;;;18.65;11.20;;;;;;;;;;5053949;28;20254;-64
2022/03/13 09:54:15;;;;;;;19.13;11.43;;;;;;;;;;5052664;28;20254;-64
2022/03/13 09:56:40;;;;;;;17.48;11.43;;;;;;;;;;5053670;28;20215;-64
2022/03/13 09:59:06;;;;;;;17.83;11.90;;;;;;;;;;5053185;28;20364;-63
2022/03/13 10:01:32;;;;;;;19.10;12.00;;;;;;;;;;5053004;28;20242;-64
2022/03/13 10:03:58;;;;;;;16.42;10.98;;;;;;;;;;5056281;28;20234;-64
2022/03/13 10:06:25;;;;;;;18.40;12.15;;;;;;;;;;5059744;28;20631;-64
2022/03/13 10:08:50;;;;;;;18.85;12.07;;;;;;;;;;5053024;28;20214;-64
2022/03/13 10:11:16;;;;;;;18.67;11.57;;;;;;;;;;5053024;28;20626;-64
2022/03/13 10:13:42;;;;;;;17.70;11.38;;;;;;;;;;5053644;28;20218;-64
2022/03/13 10:16:08;;;;;;;16.70;11.93;;;;;;;;;;5052294;28;20219;-64
2022/03/13 10:18:33;;;;;;;17.75;11.43;;;;;;;;;;5053370;28;20777;-64
2022/03/13 10:21:05;;;;;;;17.48;12.10;;;;;;;;;;5053320;28;20337;-64
2022/03/13 10:23:30;;;;;;;18.70;11.57;;;;;;;;;;5052339;28;20211;-65
2022/03/13 10:25:55;;;;;;;17.27;12.00;;;;;;;;;;5053203;28;20750;-64
2022/03/13 10:28:22;;;;;;;15.57;12.05;;;;;;;;;;5052818;28;20218;-64
2022/03/13 10:30:49;;;;;;;20.38;12.20;;;;;;;;;;5052058;28;20211;-65
2022/03/13 10:33:14;;;;;;;17.77;12.35;;;;;;;;;;5040126;28;20609;-64
2022/03/13 10:35:39;;;;;;;19.80;12.57;;;;;;;;;;5061285;28;20262;-64
2022/03/13 10:38:19;;;;;;;18.83;12.40;;;;;;;;;;5052385;28;20598;-64
2022/03/13 10:40:45;;;;;;;17.15;11.63;;;;;;;;;;5052861;28;20226;-64
2022/03/13 10:43:11;;;;;;;15.73;12.15;;;;;;;;;;5051717;28;20218;-65
2022/03/13 10:45:37;;;;;;;18.08;12.50;;;;;;;;;;5048794;28;20218;-64
2022/03/13 10:48:18;;;;;;;16.20;12.32;;;;;;;;;;5072562;28;20680;-64
2022/03/13 10:50:45;;;;;;;16.45;11.80;;;;;;;;;;5071817;28;20713;-64
2022/03/13 10:53:12;;;;;;;20.20;12.80;;;;;;;;;;5072097;28;20304;-64
2022/03/13 10:55:38;;;;;;;16.67;12.18;;;;;;;;;;5072708;28;20210;-64
2022/03/13 10:58:03;;;;;;;17.52;12.18;;;;;;;;;;5071333;28;20239;-64
2022/03/13 11:00:29;;;;;;;17.67;12.20;;;;;;;;;;5072352;28;20255;-64
2022/03/13 11:02:55;;;;;;;19.38;12.25;;;;;;;;;;5072508;28;20245;-64
2022/03/13 11:05:20;;;;;;;18.25;12.50;;;;;;;;;;5066372;28;20226;-64
2022/03/13 11:07:46;;;;;;;20.15;13.15;;;;;;;;;;5052531;28;20587;-64
2022/03/13 11:10:11;;;;;;;19.00;13.05;;;;;;;;;;5051228;28;20217;-64
2022/03/13 11:12:37;;;;;;;16.17;12.02;;;;;;;;;;5053951;28;20297;-64
2022/03/13 11:15:03;;;;;;;18.75;12.77;;;;;;;;;;5051609;28;20264;-63
2022/03/13 11:17:30;;;;;;;16.92;13.05;;;;;;;;;;5051649;28;20223;-58
2022/03/13 11:19:57;;;;;;;18.02;12.88;;;;;;;;;;5051422;28;20294;-58
2022/03/13 11:22:22;;;;;;;18.42;12.85;;;;;;;;;;5051777;28;20670;-59
2022/03/13 11:24:48;;;;;;;17.02;11.95;;;;;;;;;;5051242;28;20245;-58
2022/03/13 11:27:15;;;;;;;16.95;13.07;;;;;;;;;;5033965;28;20207;-58
2022/03/13 11:29:40;;;;;;;17.63;12.02;;;;;;;;;;5051971;28;20269;-59
2022/03/13 11:32:24;;;;;;;18.05;12.30;;;;;;;;;;5050516;28;20219;-59
2022/03/13 11:35:09;;;;;;;18.25;12.75;;;;;;;;;;5052159;28;20210;-58
2022/03/13 11:37:34;;;;;;;16.70;11.95;;;;;;;;;;5051658;28;20215;-58
2022/03/13 11:40:00;;;;;;;15.90;11.65;;;;;;;;;;5050865;28;20321;-58
2022/03/13 11:42:25;;;;;;;18.83;11.82;;;;;;;;;;5051483;28;20238;-58
2022/03/13 11:44:50;;;;;;;16.08;11.02;;;;;;;;;;5059289;28;20297;-58
2022/03/13 11:47:20;;;;;;;16.63;11.32;;;;;;;;;;5070409;28;20215;-59
2022/03/13 11:49:45;;;;;;;15.73;11.10;;;;;;;;;;5071742;28;20547;-58
2022/03/13 11:52:11;;;;;;;16.13;11.38;;;;;;;;;;5070925;28;20761;-58
2022/03/13 11:54:48;;;;;;;16.35;11.73;;;;;;;;;;5070926;28;20226;-58
2022/03/13 11:57:14;;;;;;;15.65;12.10;;;;;;;;;;5070879;28;20241;-59
2022/03/13 11:59:39;;;;;;;16.33;11.35;;;;;;;;;;5071320;28;20644;-58
2022/03/13 12:02:09;;;;;;;15.38;10.88;;;;;;;;;;5051305;28;20213;-58
2022/03/13 12:04:34;;;;;;;15.07;10.70;;;;;;;;;;5045595;28;20665;-58
2022/03/13 12:07:00;;;;;;;13.48;10.63;;;;;;;;;;5058653;28;20740;-58
2022/03/13 12:09:25;;;;;;;14.75;10.48;;;;;;;;;;5070282;28;20214;-58
2022/03/13 12:11:56;;;;;;;13.95;10.70;;;;;;;;;;5071267;28;20712;-58
2022/03/13 12:14:22;;;;;;;14.48;10.80;;;;;;;;;;5070139;28;20662;-58
2022/03/13 12:16:48;;;;;;;14.82;10.93;;;;;;;;;;5052803;28;20268;-58
2022/03/13 12:19:16;;;;;;;15.93;11.48;;;;;;;;;;5051820;28;20217;-58
2022/03/13 12:21:43;;;;;;;14.23;11.25;;;;;;;;;;5070253;28;20237;-58
2022/03/13 12:24:10;;;;;;;14.27;11.20;;;;;;;;;;5070661;28;20229;-59
2022/03/13 12:26:38;;;;;;;16.08;11.55;;;;;;;;;;5053343;28;20217;-58
2022/03/13 12:29:04;;;;;;;15.07;11.20;;;;;;;;;;5069908;28;20245;-59
2022/03/13 12:31:29;;;;;;;14.02;11.00;;;;;;;;;;5070695;28;20256;-58
2022/03/13 12:33:54;;;;;;;12.48;10.45;;;;;;;;;;5052850;28;20225;-58
2022/03/13 12:36:20;;;;;;;13.43;9.90;;;;;;;;;;5069572;28;20578;-59
2022/03/13 12:38:49;;;;;;;16.13;10.60;;;;;;;;;;5070878;28;20261;-58
2022/03/13 12:41:14;;;;;;;13.50;10.15;;;;;;;;;;5070182;28;20214;-58
2022/03/13 12:43:50;;;;;;;13.73;10.57;;;;;;;;;;5069962;28;20214;-58
2022/03/13 12:46:17;;;;;;;14.65;10.77;;;;;;;;;;5050690;28;20293;-59
2022/03/13 12:48:49;;;;;;;16.15;11.70;;;;;;;;;;5050745;28;20219;-58
2022/03/13 12:51:29;;;;;;;12.80;10.23;;;;;;;;;;5048973;28;20720;-59
2022/03/13 12:53:55;;;;;;;12.32;9.48;;;;;;;;;;5050554;28;20214;-58
2022/03/13 12:56:20;;;;;;;14.82;11.30;;;;;;;;;;5049204;28;20302;-58
2022/03/13 12:58:45;;;;;;;13.57;10.15;;;;;;;;;;5050486;28;20231;-58
2022/03/13 13:01:18;;;;;;;13.13;10.38;;;;;;;;;;5049761;28;20299;-58
2022/03/13 13:03:49;;;;;;;12.63;9.75;;;;;;;;;;5050648;28;20215;-58
2022/03/13 13:06:26;;;;;;;14.10;10.13;;;;;;;;;;5057052;28;20718;-58
2022/03/13 13:08:52;;;;;;;13.30;10.07;;;;;;;;;;5050313;28;20246;-58
2022/03/13 13:11:30;;;;;;;12.30;8.30;;;;;;;;;;5031266;28;20686;-58
2022/03/13 13:13:56;;;;;;;11.35;8.32;;;;;;;;;;5050429;28;20223;-59
2022/03/13 13:16:22;;;;;;;11.48;8.57;;;;;;;;;;5031919;28;20239;-58
2022/03/13 13:18:47;;;;;;;11.68;8.88;;;;;;;;;;5031540;28;20258;-58
2022/03/13 13:21:12;;;;;;;11.95;9.27;;;;;;;;;;5049424;28;20238;-58
2022/03/13 13:23:37;;;;;;;11.88;8.82;;;;;;;;;;5050262;28;20214;-59
2022/03/13 13:26:03;;;;;;;10.98;8.98;;;;;;;;;;5049000;28;20735;-58
2022/03/13 13:28:28;;;;;;;12.48;8.95;;;;;;;;;;5032302;28;20219;-58
2022/03/13 13:30:53;;;;;;;12.68;8.75;;;;;;;;;;5050010;28;20260;-58
2022/03/13 13:33:20;;;;;;;10.80;8.48;;;;;;;;;;5048762;28;20245;-58
2022/03/13 13:35:53;;;;;;;11.50;8.18;;;;;;;;;;5050128;28;20685;-58
2022/03/13 13:38:19;;;;;;;12.02;8.88;;;;;;;;;;5049136;28;20227;-58
2022/03/13 13:40:45;;;;;;;11.35;8.23;;;;;;;;;;5053584;28;20211;-57
2022/03/13 13:43:13;;;;;;;9.35;7.30;;;;;;;;;;5053000;28;20579;-58
2022/03/13 13:45:40;;;;;;;8.15;6.38;;;;;;;;;;5063353;28;20210;-58
2022/03/13 13:48:23;;;;;;;8.82;6.82;;;;;;;;;;5069250;28;20238;-59
2022/03/13 13:50:49;;;;;;;9.43;6.47;;;;;;;;;;5069998;28;20241;-58
2022/03/13 13:53:15;;;;;;;10.10;7.03;;;;;;;;;;5068573;28;20693;-61
2022/03/13 13:55:41;;;;;;;9.85;7.55;;;;;;;;;;5069895;28;20753;-61
2022/03/13 13:58:17;;;;;;;9.00;7.05;;;;;;;;;;5069236;28;20344;-60
2022/03/13 14:00:43;;;;;;;11.63;8.52;;;;;;;;;;5068872;28;20696;-60
2022/03/13 14:03:09;;;;;;;14.02;9.07;;;;;;;;;;5068852;28;20211;-60
2022/03/13 14:05:34;;;;;;;11.73;9.10;;;;;;;;;;5049746;28;20798;-60
2022/03/13 14:07:59;;;;;;;11.63;8.05;;;;;;;;;;5048322;28;20726;-60
2022/03/13 14:10:24;;;;;;;12.60;8.30;;;;;;;;;;5049232;28;20749;-60
2022/03/13 14:12:50;;;;;;;12.18;9.57;;;;;;;;;;5049869;28;20226;-60